Rickmers New Orleans — V7FF2 — position and weather

sailwx.info

Track history (hours):
 
Tides and Currents Weather Stations Pressure Air Temp Water Temp Dewpoint Dewpoint Depression Visibility Wind Speed Wind Dir Waves Ship Positions

Rickmers New Orleans

Last reported at 2014-Sep-10 07:33 UTC. Time now 2014-Sep-22 14:17 UTC.
Position N 38°13' E 015°36'.
Warning: this ship's position is 12 days out of date.

Length 192.9 m; beam 27.8 m; draft 11.2 m.

Type: Ship. MMSI: 538001922.

Date/timePositionNaut miles runAvg speedWind from/ knotsBaromVisibWave heightAir tempDewpointWater temp
2014-Sep-10 07:33N 38°13' E 015°36'37412.0
2014-Sep-09 00:24N 42°37' E 009°48'2612.5
2014-Sep-08 22:19N 43°02' E 009°36'912.1
2014-Sep-08 21:33N 43°10' E 009°32'1313.1
2014-Sep-08 20:33N 43°23' E 009°26'1313.2
2014-Sep-08 19:33N 43°35' E 009°20'1312.9
2014-Sep-08 18:33N 43°47' E 009°14'1312.8
2014-Sep-08 17:33N 43°59' E 009°08'1212.5
2014-Sep-08 16:33N 44°11' E 009°02'1212.2
2014-Sep-08 15:33N 44°23' E 008°57'3 2.8
2014-Sep-08 14:29N 44°24' E 008°53'0 0.0
2014-Sep-08 13:29N 44°24' E 008°53'0 0.0
2014-Sep-08 12:29N 44°24' E 008°53'0 0.0
2014-Sep-08 11:29N 44°24' E 008°53'0 0.0
2014-Sep-08 10:29N 44°24' E 008°53'0 0.0
2014-Sep-08 08:29N 44°24' E 008°53'0 0.0
2014-Sep-08 06:29N 44°24' E 008°53'0 0.0
2014-Sep-08 05:29N 44°24' E 008°53'0 0.0
2014-Sep-08 04:29N 44°24' E 008°53'0 0.0
2014-Sep-08 03:17N 44°24' E 008°53'0 0.0
2014-Sep-08 02:29N 44°24' E 008°53'0 0.0
2014-Sep-08 01:29N 44°24' E 008°53'0 0.0
2014-Sep-08 00:32N 44°24' E 008°53'0 0.0
2014-Sep-07 23:23N 44°24' E 008°53'0 0.0
2014-Sep-07 22:14N 44°24' E 008°53'0 0.0
2014-Sep-07 21:29N 44°24' E 008°53'0 0.0
2014-Sep-07 20:26N 44°24' E 008°53'0 0.0
2014-Sep-07 19:32N 44°24' E 008°53'0 0.0
2014-Sep-07 18:23N 44°24' E 008°53'0 0.0
2014-Sep-07 17:33N 44°24' E 008°53'3 3.0
2014-Sep-07 16:33N 44°23' E 008°57'6 6.4
2014-Sep-07 15:33N 44°17' E 008°54'1514.5
2014-Sep-07 14:33N 44°07' E 008°39'1414.2
2014-Sep-07 13:32N 43°57' E 008°24'3413.9
2014-Sep-07 11:03N 43°34' E 007°49'713.9
2014-Sep-07 10:32N 43°29' E 007°42'1513.7
2014-Sep-07 09:27N 43°19' E 007°27'1314.6
2014-Sep-07 08:33N 43°11' E 007°13'1515.2
2014-Sep-07 07:33N 43°00' E 006°58'1515.3
2014-Sep-07 06:33N 42°50' E 006°43'1414.0
2014-Sep-07 05:33N 42°41' E 006°28'10714.3
2014-Sep-06 22:03N 41°28' E 004°41'1114.8
2014-Sep-06 21:19N 41°21' E 004°30'1315.4
2014-Sep-06 20:29N 41°12' E 004°18'1513.6
2014-Sep-06 19:24N 41°03' E 004°03'4414.4
2014-Sep-06 16:22N 40°33' E 003°21'1113.6
2014-Sep-06 15:33N 40°26' E 003°10'1515.0
2014-Sep-06 14:33N 40°15' E 002°55'1616.4
2014-Sep-06 13:33N 40°04' E 002°39'1716.7
2014-Sep-06 12:33N 39°53' E 002°23'1716.6
2014-Sep-06 11:33N 39°42' E 002°07'1616.2
2014-Sep-06 10:33N 39°31' E 001°51'1616.3
2014-Sep-06 09:33N 39°20' E 001°36'15014.9
2014-Sep-05 23:26N 37°28' W 000°32'24214.2
2014-Sep-05 06:22N 35°60' W 005°13'11216.0
2014-Sep-04 23:21N 36°10' W 007°32'1316.0
2014-Sep-04 22:33N 36°14' W 007°47'1616.1
2014-Sep-04 21:33N 36°18' W 008°06'1616.1
2014-Sep-04 20:33N 36°23' W 008°25'  
2014-Sep-02 06:33N 44°37' W 003°15'10 9.4
2014-Sep-02 05:31N 44°35' W 003°02'8 8.7
2014-Sep-02 04:33N 44°34' W 002°50'16 6.4
2014-Sep-02 02:05N 44°31' W 002°28'4 6.7
2014-Sep-02 01:30N 44°31' W 002°23'7 7.0
2014-Sep-02 00:33N 44°30' W 002°14'7 7.0
2014-Sep-01 23:31N 44°30' W 002°03'7 6.8
2014-Sep-01 22:31N 44°30' W 001°54'6 5.8
2014-Sep-01 21:33N 44°35' W 001°51'1211.9
2014-Sep-01 20:32N 44°46' W 001°58'1212.3
2014-Sep-01 19:33N 44°57' W 002°05'1312.4
2014-Sep-01 18:33N 45°08' W 002°12'1212.2
2014-Sep-01 17:33N 45°20' W 002°20'4212.2
2014-Sep-01 14:06N 45°58' W 002°44'712.0
2014-Sep-01 13:30N 46°05' W 002°49'1312.1
2014-Sep-01 12:27N 46°16' W 002°56'1112.1
2014-Sep-01 11:33N 46°26' W 003°02'1211.9
2014-Sep-01 10:33N 46°37' W 003°10'1211.9
2014-Sep-01 09:33N 46°48' W 003°17'1212.0
2014-Sep-01 08:33N 46°59' W 003°24'1211.7
2014-Sep-01 07:33N 47°09' W 003°31'1211.6
2014-Sep-01 06:34N 47°20' W 003°38'2311.6
2014-Sep-01 04:33N 47°32' W 004°07'2811.6
2014-Sep-01 02:06N 47°47' W 004°43'611.4
2014-Sep-01 01:33N 47°50' W 004°51'2412.2
2014-Aug-31 23:33N 48°02' W 005°22'1312.5
2014-Aug-31 22:30N 48°11' W 005°38'3213.9
2014-Aug-31 20:13N 48°40' W 005°56'1015.2
2014-Aug-31 19:33N 48°48' W 005°48'1514.7
2014-Aug-31 18:33N 48°58' W 005°32'1514.9
2014-Aug-31 17:33N 49°07' W 005°13'1515.3
2014-Aug-31 16:33N 49°15' W 004°53'1616.0
2014-Aug-31 15:34N 49°23' W 004°32'3316.6
2014-Aug-31 13:33N 49°39' W 003°47'  
Track history (hours):
 
Tides and Currents Weather Stations Pressure Air Temp Water Temp Dewpoint Dewpoint Depression Visibility Wind Speed Wind Dir Waves Ship Positions

Rickmers New Orleans

Last reported at 2014-Sep-10 07:33 UTC. Time now 2014-Sep-22 14:17 UTC.
Position N 38°13' E 015°36'.
Warning: this ship's position is 12 days out of date.

Length 192.9 m; beam 27.8 m; draft 11.2 m.

Type: Ship. MMSI: 538001922.

Date/timePositionNaut miles runAvg speedWind from/ knotsBaromVisibWave heightAir tempDewpointWater temp
2014-Sep-10 07:33N 38°13' E 015°36'37412.0
2014-Sep-09 00:24N 42°37' E 009°48'2612.5
2014-Sep-08 22:19N 43°02' E 009°36'912.1
2014-Sep-08 21:33N 43°10' E 009°32'1313.1
2014-Sep-08 20:33N 43°23' E 009°26'1313.2
2014-Sep-08 19:33N 43°35' E 009°20'1312.9
2014-Sep-08 18:33N 43°47' E 009°14'1312.8
2014-Sep-08 17:33N 43°59' E 009°08'1212.5
2014-Sep-08 16:33N 44°11' E 009°02'1212.2
2014-Sep-08 15:33N 44°23' E 008°57'3 2.8
2014-Sep-08 14:29N 44°24' E 008°53'0 0.0
2014-Sep-08 13:29N 44°24' E 008°53'0 0.0
2014-Sep-08 12:29N 44°24' E 008°53'0 0.0
2014-Sep-08 11:29N 44°24' E 008°53'0 0.0
2014-Sep-08 10:29N 44°24' E 008°53'0 0.0
2014-Sep-08 08:29N 44°24' E 008°53'0 0.0
2014-Sep-08 06:29N 44°24' E 008°53'0 0.0
2014-Sep-08 05:29N 44°24' E 008°53'0 0.0
2014-Sep-08 04:29N 44°24' E 008°53'0 0.0
2014-Sep-08 03:17N 44°24' E 008°53'0 0.0
2014-Sep-08 02:29N 44°24' E 008°53'0 0.0
2014-Sep-08 01:29N 44°24' E 008°53'0 0.0
2014-Sep-08 00:32N 44°24' E 008°53'0 0.0
2014-Sep-07 23:23N 44°24' E 008°53'0 0.0
2014-Sep-07 22:14N 44°24' E 008°53'0 0.0
2014-Sep-07 21:29N 44°24' E 008°53'0 0.0
2014-Sep-07 20:26N 44°24' E 008°53'0 0.0
2014-Sep-07 19:32N 44°24' E 008°53'0 0.0
2014-Sep-07 18:23N 44°24' E 008°53'0 0.0
2014-Sep-07 17:33N 44°24' E 008°53'3 3.0
2014-Sep-07 16:33N 44°23' E 008°57'6 6.4
2014-Sep-07 15:33N 44°17' E 008°54'1514.5
2014-Sep-07 14:33N 44°07' E 008°39'1414.2
2014-Sep-07 13:32N 43°57' E 008°24'3413.9
2014-Sep-07 11:03N 43°34' E 007°49'713.9
2014-Sep-07 10:32N 43°29' E 007°42'1513.7
2014-Sep-07 09:27N 43°19' E 007°27'1314.6
2014-Sep-07 08:33N 43°11' E 007°13'1515.2
2014-Sep-07 07:33N 43°00' E 006°58'1515.3
2014-Sep-07 06:33N 42°50' E 006°43'1414.0
2014-Sep-07 05:33N 42°41' E 006°28'10714.3
2014-Sep-06 22:03N 41°28' E 004°41'1114.8
2014-Sep-06 21:19N 41°21' E 004°30'1315.4
2014-Sep-06 20:29N 41°12' E 004°18'1513.6
2014-Sep-06 19:24N 41°03' E 004°03'4414.4
2014-Sep-06 16:22N 40°33' E 003°21'1113.6
2014-Sep-06 15:33N 40°26' E 003°10'1515.0
2014-Sep-06 14:33N 40°15' E 002°55'1616.4
2014-Sep-06 13:33N 40°04' E 002°39'1716.7
2014-Sep-06 12:33N 39°53' E 002°23'1716.6
2014-Sep-06 11:33N 39°42' E 002°07'1616.2
2014-Sep-06 10:33N 39°31' E 001°51'1616.3
2014-Sep-06 09:33N 39°20' E 001°36'15014.9
2014-Sep-05 23:26N 37°28' W 000°32'24214.2
2014-Sep-05 06:22N 35°60' W 005°13'11216.0
2014-Sep-04 23:21N 36°10' W 007°32'1316.0
2014-Sep-04 22:33N 36°14' W 007°47'1616.1
2014-Sep-04 21:33N 36°18' W 008°06'1616.1
2014-Sep-04 20:33N 36°23' W 008°25'  
2014-Sep-02 06:33N 44°37' W 003°15'10 9.4
2014-Sep-02 05:31N 44°35' W 003°02'8 8.7
2014-Sep-02 04:33N 44°34' W 002°50'16 6.4
2014-Sep-02 02:05N 44°31' W 002°28'4 6.7
2014-Sep-02 01:30N 44°31' W 002°23'7 7.0
2014-Sep-02 00:33N 44°30' W 002°14'7 7.0
2014-Sep-01 23:31N 44°30' W 002°03'7 6.8
2014-Sep-01 22:31N 44°30' W 001°54'6 5.8
2014-Sep-01 21:33N 44°35' W 001°51'1211.9
2014-Sep-01 20:32N 44°46' W 001°58'1212.3
2014-Sep-01 19:33N 44°57' W 002°05'1312.4
2014-Sep-01 18:33N 45°08' W 002°12'1212.2
2014-Sep-01 17:33N 45°20' W 002°20'4212.2
2014-Sep-01 14:06N 45°58' W 002°44'712.0
2014-Sep-01 13:30N 46°05' W 002°49'1312.1
2014-Sep-01 12:27N 46°16' W 002°56'1112.1
2014-Sep-01 11:33N 46°26' W 003°02'1211.9
2014-Sep-01 10:33N 46°37' W 003°10'1211.9
2014-Sep-01 09:33N 46°48' W 003°17'1212.0
2014-Sep-01 08:33N 46°59' W 003°24'1211.7
2014-Sep-01 07:33N 47°09' W 003°31'1211.6
2014-Sep-01 06:34N 47°20' W 003°38'2311.6
2014-Sep-01 04:33N 47°32' W 004°07'2811.6
2014-Sep-01 02:06N 47°47' W 004°43'611.4
2014-Sep-01 01:33N 47°50' W 004°51'2412.2
2014-Aug-31 23:33N 48°02' W 005°22'1312.5
2014-Aug-31 22:30N 48°11' W 005°38'3213.9
2014-Aug-31 20:13N 48°40' W 005°56'1015.2
2014-Aug-31 19:33N 48°48' W 005°48'1514.7
2014-Aug-31 18:33N 48°58' W 005°32'1514.9
2014-Aug-31 17:33N 49°07' W 005°13'1515.3
2014-Aug-31 16:33N 49°15' W 004°53'1616.0
2014-Aug-31 15:34N 49°23' W 004°32'3316.6
2014-Aug-31 13:33N 49°39' W 003°47'  

Dump ship's entire track history